Time;durP1;ratioP1;P1;durP2;ratioP2;P2;SDS_P1;SDS_P2;PMS_P1;PMS_P2;Temp;Humidity;BMP_temperature;BMP_pressure;BME280_temperature;BME280_humidity;BME280_pressure;Samples;Min_cycle;Max_cycle;Signal;HPM_P1;HPM_P2
2023/04/30 00:00:32;;;;;;;12.90;9.60;;;8.90;99.90;;;;;;5015839;28;20172;-70
2023/04/30 00:02:58;;;;;;;14.10;8.80;;;8.90;99.90;;;;;;5015823;28;20182;-70
2023/04/30 00:05:24;;;;;;;15.77;9.17;;;8.90;99.90;;;;;;5015694;28;20645;-70
2023/04/30 00:07:49;;;;;;;15.00;10.70;;;8.80;99.90;;;;;;5015324;28;20560;-70
2023/04/30 00:10:15;;;;;;;14.93;10.17;;;8.80;99.90;;;;;;5015514;28;20173;-71
2023/04/30 00:12:40;;;;;;;15.40;9.80;;;8.80;99.90;;;;;;5014357;28;20192;-70
2023/04/30 00:15:06;;;;;;;12.77;9.60;;;8.80;99.90;;;;;;5015521;28;20191;-70
2023/04/30 00:17:32;;;;;;;13.33;8.97;;;8.70;99.90;;;;;;5015223;28;20295;-70
2023/04/30 00:19:57;;;;;;;11.87;9.83;;;8.70;99.90;;;;;;5015530;28;20757;-70
2023/04/30 00:22:23;;;;;;;14.97;9.63;;;8.70;99.90;;;;;;5030723;28;20176;-70
2023/04/30 00:24:48;;;;;;;12.37;9.47;;;8.60;99.90;;;;;;5015308;28;20164;-70
2023/04/30 00:27:14;;;;;;;10.60;8.30;;;8.60;99.90;;;;;;5015000;28;20174;-70
2023/04/30 00:29:40;;;;;;;13.73;10.40;;;8.60;99.90;;;;;;5030397;28;20803;-70
2023/04/30 00:32:05;;;;;;;13.90;9.97;;;8.50;99.90;;;;;;5015053;28;20250;-70
2023/04/30 00:34:31;;;;;;;12.20;9.53;;;8.50;99.90;;;;;;5015045;28;20165;-70
2023/04/30 00:36:56;;;;;;;13.80;10.00;;;8.50;99.90;;;;;;5030040;28;20195;-70
2023/04/30 00:39:22;;;;;;;11.70;8.60;;;8.50;99.90;;;;;;5015075;28;20191;-70
2023/04/30 00:41:47;;;;;;;13.20;9.27;;;8.40;99.90;;;;;;5013826;28;20176;-70
2023/04/30 00:44:13;;;;;;;10.53;7.80;;;8.40;99.90;;;;;;5015014;28;20164;-70
2023/04/30 00:46:38;;;;;;;13.80;9.40;;;8.40;99.90;;;;;;5015010;28;20191;-70
2023/04/30 00:49:04;;;;;;;15.77;9.37;;;8.30;99.90;;;;;;5014514;28;20196;-70
2023/04/30 00:51:34;;;;;;;12.90;10.03;;;8.30;99.90;;;;;;5029907;28;20172;-70
2023/04/30 00:54:02;;;;;;;11.43;9.30;;;8.30;99.90;;;;;;5014815;28;20223;-70
2023/04/30 00:56:31;;;;;;;12.03;8.70;;;8.30;99.90;;;;;;5014828;28;20423;-70
2023/04/30 00:58:57;;;;;;;12.70;9.03;;;8.30;99.90;;;;;;5014221;28;20429;-70
2023/04/30 01:01:24;;;;;;;12.27;9.40;;;8.20;99.90;;;;;;5013373;28;20486;-70
2023/04/30 01:03:50;;;;;;;12.07;9.47;;;8.20;99.90;;;;;;5014786;28;20172;-70
2023/04/30 01:06:16;;;;;;;13.20;8.60;;;8.20;99.90;;;;;;5014380;28;20437;-70
2023/04/30 01:08:42;;;;;;;11.13;9.27;;;8.20;99.90;;;;;;5029148;28;20526;-70
2023/04/30 01:11:39;;;;;;;12.50;9.47;;;8.10;99.90;;;;;;5014463;28;20251;-70
2023/04/30 01:14:16;;;;;;;11.87;8.67;;;8.10;99.90;;;;;;5014681;28;20486;-70
2023/04/30 01:16:58;;;;;;;8.70;7.00;;;8.10;99.90;;;;;;5014399;28;20418;-70
2023/04/30 01:19:35;;;;;;;13.47;10.97;;;8.00;99.90;;;;;;5014352;28;20454;-69
2023/04/30 01:22:03;;;;;;;11.50;8.93;;;8.00;99.90;;;;;;5014780;28;20888;-70
2023/04/30 01:25:05;;;;;;;12.73;9.23;;;8.00;99.90;;;;;;5013458;28;20971;-70
2023/04/30 01:27:51;;;;;;;11.57;8.30;;;7.90;99.90;;;;;;5013974;28;20395;-70
2023/04/30 01:30:17;;;;;;;16.80;9.00;;;7.90;99.90;;;;;;5013872;28;20416;-70
2023/04/30 01:32:43;;;;;;;12.97;7.47;;;7.90;99.90;;;;;;5014068;28;20415;-70
2023/04/30 01:35:09;;;;;;;14.53;8.73;;;7.80;99.90;;;;;;5013864;28;20423;-70
2023/04/30 01:37:58;;;;;;;11.77;9.10;;;7.80;99.90;;;;;;5013537;28;20165;-70
2023/04/30 01:40:53;;;;;;;11.67;7.93;;;7.80;99.90;;;;;;5013835;28;20260;-70
2023/04/30 01:43:42;;;;;;;12.57;7.30;;;7.80;99.90;;;;;;5013811;28;20844;-70
2023/04/30 01:46:28;;;;;;;9.43;7.27;;;7.70;99.90;;;;;;5013632;28;20518;-71
2023/04/30 01:49:14;;;;;;;11.23;7.77;;;7.70;99.90;;;;;;5013216;28;20477;-70
2023/04/30 01:51:47;;;;;;;12.57;8.70;;;7.70;99.90;;;;;;5013684;28;20398;-70
2023/04/30 01:55:03;;;;;;;11.97;8.93;;;7.60;99.90;;;;;;5013564;28;20395;-70
2023/04/30 01:57:33;;;;;;;11.07;7.53;;;7.60;99.90;;;;;;4991466;28;20830;-70
2023/04/30 01:59:58;;;;;;;12.77;10.20;;;7.60;99.90;;;;;;4991820;28;20914;-70
2023/04/30 02:02:24;;;;;;;10.97;8.10;;;7.60;99.90;;;;;;5004246;28;20407;-71
2023/04/30 02:04:49;;;;;;;13.40;8.17;;;7.50;99.90;;;;;;5013407;28;20243;-70
2023/04/30 02:07:36;;;;;;;13.50;8.37;;;7.50;99.90;;;;;;5013126;28;20506;-70
2023/04/30 02:10:02;;;;;;;8.63;7.67;;;7.50;99.90;;;;;;5013311;28;20577;-69
2023/04/30 02:12:29;;;;;;;10.67;8.67;;;7.50;99.90;;;;;;5012463;28;20792;-70
2023/04/30 02:14:54;;;;;;;11.53;8.70;;;7.40;99.90;;;;;;5013122;28;20404;-70
2023/04/30 02:17:20;;;;;;;9.07;6.80;;;7.40;99.90;;;;;;5012988;28;20396;-70
2023/04/30 02:19:45;;;;;;;9.07;6.60;;;7.40;99.90;;;;;;5013207;28;20180;-70
2023/04/30 02:22:11;;;;;;;11.30;7.80;;;7.40;99.90;;;;;;5013219;28;20180;-70
2023/04/30 02:24:36;;;;;;;8.40;6.53;;;7.30;99.90;;;;;;5013132;28;20164;-70
2023/04/30 02:27:02;;;;;;;10.20;7.00;;;7.30;99.90;;;;;;5012784;28;20200;-70
2023/04/30 02:29:28;;;;;;;15.93;7.13;;;7.30;99.90;;;;;;5012978;28;20203;-70
2023/04/30 02:31:53;;;;;;;13.90;6.93;;;7.20;99.90;;;;;;5013052;28;20215;-70
2023/04/30 02:34:19;;;;;;;13.07;7.57;;;7.20;99.90;;;;;;5012823;28;20176;-70
2023/04/30 02:36:44;;;;;;;8.80;7.27;;;7.10;99.90;;;;;;5012761;28;20195;-70
2023/04/30 02:39:09;;;;;;;9.63;6.60;;;7.10;99.90;;;;;;5012797;28;20172;-70
2023/04/30 02:41:35;;;;;;;11.83;7.93;;;7.10;99.90;;;;;;5012874;28;20227;-70
2023/04/30 02:44:02;;;;;;;11.27;8.10;;;7.10;99.90;;;;;;5012718;28;20171;-70
2023/04/30 02:46:27;;;;;;;12.20;8.37;;;7.00;99.90;;;;;;5012783;28;20180;-70
2023/04/30 02:48:53;;;;;;;9.63;7.00;;;7.00;99.90;;;;;;5010994;28;20979;-70
2023/04/30 02:51:18;;;;;;;16.13;8.73;;;7.00;99.90;;;;;;5012645;28;20168;-70
2023/04/30 02:53:44;;;;;;;11.70;8.30;;;7.00;99.90;;;;;;5012684;28;20191;-70
2023/04/30 02:56:09;;;;;;;14.93;8.00;;;6.90;99.90;;;;;;5012680;28;20692;-70
2023/04/30 02:58:35;;;;;;;11.03;8.07;;;6.90;99.90;;;;;;5012338;28;20168;-69
2023/04/30 03:01:00;;;;;;;12.83;9.10;;;6.90;99.90;;;;;;5012521;28;20211;-70
2023/04/30 03:03:26;;;;;;;9.17;6.83;;;6.90;99.90;;;;;;5013138;28;20199;-70
2023/04/30 03:05:51;;;;;;;9.73;7.57;;;6.80;99.90;;;;;;5014366;28;20200;-69
2023/04/30 03:08:17;;;;;;;13.10;7.43;;;6.80;99.90;;;;;;5014263;28;20653;-69
2023/04/30 03:10:42;;;;;;;11.43;7.83;;;6.80;99.90;;;;;;5014589;28;20667;-69
2023/04/30 03:13:08;;;;;;;9.87;7.50;;;6.70;99.90;;;;;;5013265;28;20274;-70
2023/04/30 03:15:33;;;;;;;11.83;8.10;;;6.70;99.90;;;;;;5014553;28;20190;-70
2023/04/30 03:17:59;;;;;;;14.57;8.70;;;6.70;99.90;;;;;;5013353;28;20238;-70
2023/04/30 03:20:24;;;;;;;13.60;8.17;;;6.70;99.90;;;;;;5012149;28;20172;-70
2023/04/30 03:22:50;;;;;;;11.53;7.73;;;6.70;99.90;;;;;;4993848;28;20666;-70
2023/04/30 03:25:15;;;;;;;13.50;8.73;;;6.70;99.90;;;;;;4996592;28;20220;-69
2023/04/30 03:27:41;;;;;;;10.30;8.20;;;6.70;99.90;;;;;;4995962;28;20243;-70
2023/04/30 03:30:07;;;;;;;14.60;9.40;;;6.60;99.90;;;;;;4999052;28;20165;-70
2023/04/30 03:32:33;;;;;;;11.10;7.83;;;6.60;99.90;;;;;;4998462;28;20164;-70
2023/04/30 03:34:59;;;;;;;17.70;9.20;;;6.60;99.90;;;;;;4996382;28;20466;-70
2023/04/30 03:37:24;;;;;;;11.10;7.57;;;6.60;99.90;;;;;;4996148;28;20251;-69
2023/04/30 03:39:50;;;;;;;13.93;8.53;;;6.60;99.90;;;;;;4996358;28;20173;-70
2023/04/30 03:42:15;;;;;;;8.87;7.27;;;6.60;99.90;;;;;;4996368;28;20169;-70
2023/04/30 03:44:41;;;;;;;10.00;7.70;;;6.60;99.90;;;;;;4996442;28;20196;-70
2023/04/30 03:47:07;;;;;;;12.13;8.40;;;6.50;99.90;;;;;;4995966;28;20197;-69
2023/04/30 03:49:32;;;;;;;10.70;7.70;;;6.50;99.90;;;;;;4998939;28;20588;-69
2023/04/30 03:51:58;;;;;;;14.13;8.03;;;6.40;99.90;;;;;;4998752;28;20758;-69
2023/04/30 03:54:23;;;;;;;9.10;6.87;;;6.40;99.90;;;;;;4996870;28;20212;-70
2023/04/30 03:56:49;;;;;;;17.80;8.53;;;6.40;99.90;;;;;;4995828;28;20199;-70
2023/04/30 03:59:15;;;;;;;11.37;6.77;;;6.40;99.90;;;;;;4995994;28;20179;-69
2023/04/30 04:01:41;;;;;;;10.93;7.43;;;6.40;99.90;;;;;;4995968;28;20161;-69
2023/04/30 04:04:07;;;;;;;21.37;9.57;;;6.40;99.90;;;;;;4995858;28;20447;-70
2023/04/30 04:06:33;;;;;;;13.90;9.57;;;6.30;99.90;;;;;;4995817;28;20203;-69
2023/04/30 04:08:58;;;;;;;12.50;8.00;;;6.30;99.90;;;;;;4995604;28;20451;-70
2023/04/30 04:11:24;;;;;;;11.20;7.47;;;6.30;99.90;;;;;;4996199;28;20772;-70
2023/04/30 04:13:50;;;;;;;12.20;7.37;;;6.30;99.90;;;;;;4995866;28;20176;-70
2023/04/30 04:16:15;;;;;;;10.30;7.53;;;6.30;99.90;;;;;;4995585;28;20789;-69
2023/04/30 04:18:41;;;;;;;13.37;7.93;;;6.30;99.90;;;;;;5011866;28;20173;-70
2023/04/30 04:21:06;;;;;;;11.17;8.03;;;6.30;99.90;;;;;;4998288;28;20161;-70
2023/04/30 04:23:32;;;;;;;12.30;9.70;;;6.40;99.90;;;;;;4998484;28;20565;-70
2023/04/30 04:25:59;;;;;;;10.73;7.50;;;6.40;99.90;;;;;;4998282;28;20197;-70
2023/04/30 04:28:25;;;;;;;10.90;7.57;;;6.40;99.90;;;;;;4997670;28;20216;-70
2023/04/30 04:30:51;;;;;;;18.07;11.90;;;6.50;99.90;;;;;;4997165;28;20409;-70
2023/04/30 04:33:17;;;;;;;21.17;12.40;;;6.50;99.90;;;;;;4995312;28;20811;-70
2023/04/30 04:35:42;;;;;;;14.60;10.13;;;6.50;99.90;;;;;;4994599;28;20459;-70
2023/04/30 04:38:08;;;;;;;16.13;8.80;;;6.60;99.90;;;;;;4994809;28;20584;-69
2023/04/30 04:40:34;;;;;;;13.13;8.73;;;6.60;99.90;;;;;;4995340;28;20716;-69
2023/04/30 04:43:00;;;;;;;9.73;8.60;;;6.70;99.90;;;;;;4996841;28;20455;-69
2023/04/30 04:45:25;;;;;;;14.63;9.33;;;6.70;99.90;;;;;;5011557;28;20247;-69
2023/04/30 04:47:51;;;;;;;12.57;8.60;;;6.80;99.90;;;;;;5012380;28;20197;-69
2023/04/30 04:50:17;;;;;;;12.33;8.30;;;6.80;99.90;;;;;;4997748;28;20609;-70
2023/04/30 04:52:42;;;;;;;11.63;7.97;;;6.90;99.90;;;;;;4997394;28;20256;-70
2023/04/30 04:55:08;;;;;;;12.47;8.50;;;6.90;99.90;;;;;;4995065;28;20208;-70
2023/04/30 04:57:34;;;;;;;11.47;7.60;;;7.00;99.90;;;;;;4994538;28;20172;-70
2023/04/30 04:59:59;;;;;;;11.50;7.93;;;7.10;99.90;;;;;;4994945;28;20397;-69
2023/04/30 05:02:25;;;;;;;11.57;8.10;;;7.20;99.90;;;;;;4994955;28;20169;-70
2023/04/30 05:04:50;;;;;;;13.23;9.73;;;7.30;99.90;;;;;;4994636;28;20169;-70
2023/04/30 05:07:17;;;;;;;10.17;8.90;;;7.40;99.90;;;;;;4994426;28;20169;-70
2023/04/30 05:09:43;;;;;;;8.73;6.83;;;7.60;99.90;;;;;;4993368;28;20208;-71
2023/04/30 05:12:09;;;;;;;18.23;9.60;;;7.80;99.90;;;;;;4994372;28;20424;-70
2023/04/30 05:14:36;;;;;;;14.37;10.07;;;8.00;99.90;;;;;;4994611;28;20400;-70
2023/04/30 05:17:01;;;;;;;16.20;9.70;;;8.20;99.90;;;;;;5009389;28;20193;-70
2023/04/30 05:19:27;;;;;;;14.07;8.77;;;8.40;99.90;;;;;;4994655;28;20459;-70
2023/04/30 05:21:52;;;;;;;13.97;8.70;;;8.60;99.90;;;;;;4994570;28;20204;-70
2023/04/30 05:24:18;;;;;;;11.60;8.40;;;8.80;99.90;;;;;;4994425;28;20169;-70
2023/04/30 05:26:43;;;;;;;10.60;8.20;;;9.10;99.90;;;;;;5009339;28;20220;-70
2023/04/30 05:29:10;;;;;;;16.73;9.70;;;9.30;99.90;;;;;;4994005;28;20208;-70
2023/04/30 05:31:36;;;;;;;13.43;7.73;;;9.70;99.90;;;;;;4994362;28;20207;-70
2023/04/30 05:34:02;;;;;;;11.13;8.63;;;10.50;99.90;;;;;;4994208;28;20428;-71
2023/04/30 05:36:28;;;;;;;13.53;8.73;;;11.40;99.90;;;;;;4994135;28;20600;-70
2023/04/30 05:38:53;;;;;;;8.80;7.50;;;12.40;99.90;;;;;;4994246;28;20163;-70
2023/04/30 05:41:20;;;;;;;11.53;8.33;;;13.40;99.90;;;;;;4995072;28;20419;-71
2023/04/30 05:43:46;;;;;;;10.60;7.67;;;14.40;99.90;;;;;;4994311;28;20173;-71
2023/04/30 05:46:12;;;;;;;11.50;7.97;;;15.40;99.90;;;;;;4994231;28;20432;-70
2023/04/30 05:48:37;;;;;;;8.40;7.53;;;16.30;99.90;;;;;;4993941;28;20452;-70
2023/04/30 05:51:05;;;;;;;6.87;6.10;;;17.10;99.90;;;;;;4993993;28;20245;-71
2023/04/30 05:53:30;;;;;;;7.73;6.80;;;18.00;99.90;;;;;;4994449;28;20212;-70
2023/04/30 05:55:56;;;;;;;7.87;6.17;;;18.80;99.90;;;;;;4994352;28;20432;-70
2023/04/30 05:58:22;;;;;;;6.70;5.83;;;19.60;99.90;;;;;;4994359;28;20169;-71
2023/04/30 06:00:52;;;;;;;5.87;5.27;;;20.30;99.90;;;;;;4994141;28;20813;-71
2023/04/30 06:03:18;;;;;;;6.60;5.90;;;21.10;99.90;;;;;;4993805;28;20172;-71
2023/04/30 06:05:44;;;;;;;7.50;6.03;;;21.80;99.90;;;;;;4993588;28;20428;-71
2023/04/30 06:08:09;;;;;;;6.80;6.10;;;22.50;88.70;;;;;;4993404;28;20463;-69
2023/04/30 06:10:35;;;;;;;7.13;6.43;;;23.10;79.50;;;;;;4993911;28;20486;-71
2023/04/30 06:13:01;;;;;;;5.97;5.33;;;23.70;71.40;;;;;;4994013;28;20248;-68
2023/04/30 06:15:26;;;;;;;15.53;12.00;;;24.20;65.60;;;;;;4993725;28;20200;-69
2023/04/30 06:17:52;;;;;;;38.10;28.30;;;24.70;61.00;;;;;;4993367;28;20169;-69
2023/04/30 06:20:18;;;;;;;8.00;6.80;;;25.10;58.30;;;;;;5008398;28;20177;-69
2023/04/30 06:22:43;;;;;;;7.47;6.70;;;25.50;56.10;;;;;;4993436;28;20169;-72
2023/04/30 06:25:09;;;;;;;10.43;6.03;;;25.90;54.20;;;;;;4993296;28;20292;-68
2023/04/30 06:27:34;;;;;;;11.03;9.90;;;26.30;53.10;;;;;;4993060;28;20173;-69
2023/04/30 06:30:00;;;;;;;28.80;20.53;;;26.80;51.90;;;;;;4993338;28;20176;-67
2023/04/30 06:32:26;;;;;;;12.93;10.20;;;27.20;50.00;;;;;;4993295;28;20165;-67
2023/04/30 06:34:51;;;;;;;5.67;5.00;;;27.50;48.30;;;;;;4993122;28;20682;-67
2023/04/30 06:37:17;;;;;;;7.80;6.07;;;27.80;47.80;;;;;;4992922;28;20418;-68
2023/04/30 06:39:43;;;;;;;7.53;5.70;;;28.10;46.40;;;;;;4993225;28;20200;-69
2023/04/30 06:42:08;;;;;;;6.83;6.17;;;28.50;46.30;;;;;;4993112;28;20482;-68
2023/04/30 06:44:34;;;;;;;7.83;6.57;;;28.90;45.20;;;;;;4992986;28;20574;-68
2023/04/30 06:46:59;;;;;;;7.20;6.20;;;29.10;44.00;;;;;;4992736;28;20195;-69
2023/04/30 06:49:25;;;;;;;7.70;6.57;;;29.50;43.90;;;;;;4992845;28;20550;-69
2023/04/30 06:51:50;;;;;;;5.40;4.70;;;29.90;42.40;;;;;;4992948;28;20204;-69
2023/04/30 06:54:16;;;;;;;5.70;5.20;;;30.30;42.00;;;;;;4993011;28;20568;-69
2023/04/30 06:56:42;;;;;;;6.17;5.57;;;30.60;41.50;;;;;;4992500;28;20193;-69
2023/04/30 06:59:08;;;;;;;6.37;5.67;;;31.00;40.80;;;;;;4992087;28;20192;-69
2023/04/30 07:01:33;;;;;;;6.53;5.90;;;31.40;40.20;;;;;;4992772;28;20432;-68
2023/04/30 07:04:00;;;;;;;5.77;5.10;;;31.80;39.10;;;;;;5007810;28;20176;-68
2023/04/30 07:06:26;;;;;;;6.80;6.10;;;32.20;38.50;;;;;;4992663;28;20681;-68
2023/04/30 07:08:51;;;;;;;6.20;5.80;;;32.70;37.60;;;;;;4992361;28;20451;-68
2023/04/30 07:11:17;;;;;;;4.80;4.40;;;33.10;36.90;;;;;;4992648;28;20169;-69
2023/04/30 07:13:42;;;;;;;5.87;5.27;;;33.70;36.50;;;;;;4992571;28;20188;-69
2023/04/30 07:16:09;;;;;;;6.13;5.63;;;34.30;35.70;;;;;;4992616;28;20185;-69
2023/04/30 07:18:35;;;;;;;6.10;5.50;;;34.90;34.80;;;;;;4992278;28;20203;-68
2023/04/30 07:21:00;;;;;;;5.47;5.07;;;35.50;34.00;;;;;;4992612;28;20930;-69
2023/04/30 07:23:26;;;;;;;6.30;5.80;;;35.90;32.80;;;;;;4992566;28;20168;-70
2023/04/30 07:25:51;;;;;;;7.30;5.43;;;36.50;32.70;;;;;;4992403;28;20197;-69
2023/04/30 07:28:17;;;;;;;6.20;5.70;;;36.90;31.10;;;;;;4990556;28;20201;-69
2023/04/30 07:30:42;;;;;;;5.20;4.40;;;37.10;30.60;;;;;;4992414;28;20176;-69
2023/04/30 07:33:08;;;;;;;4.77;4.37;;;37.50;30.80;;;;;;4992497;28;20172;-69
2023/04/30 07:35:34;;;;;;;7.20;6.60;;;38.30;30.70;;;;;;4992361;28;20185;-69
2023/04/30 07:37:59;;;;;;;6.30;5.80;;;38.70;29.30;;;;;;4992237;28;20172;-69
2023/04/30 07:40:25;;;;;;;4.83;4.43;;;39.20;29.40;;;;;;4992224;28;20653;-69
2023/04/30 07:42:51;;;;;;;5.90;5.40;;;39.70;29.00;;;;;;4992324;28;20164;-69
2023/04/30 07:45:17;;;;;;;5.20;4.70;;;40.20;28.50;;;;;;4992325;28;20192;-69
2023/04/30 07:47:43;;;;;;;4.07;3.77;;;40.80;28.40;;;;;;4991953;28;20177;-69
2023/04/30 07:50:09;;;;;;;4.80;4.40;;;41.40;28.10;;;;;;4992357;28;20414;-69
2023/04/30 07:52:34;;;;;;;4.73;4.30;;;42.00;27.50;;;;;;4992310;28;20406;-70
2023/04/30 07:55:00;;;;;;;4.37;4.00;;;42.30;26.80;;;;;;4992280;28;20212;-70
2023/04/30 07:57:25;;;;;;;5.63;4.40;;;42.30;26.50;;;;;;4991967;28;20176;-70
2023/04/30 07:59:55;;;;;;;4.53;4.20;;;42.30;26.20;;;;;;4992320;28;20180;-69
2023/04/30 08:02:20;;;;;;;5.90;5.27;;;42.50;26.30;;;;;;4992158;28;20173;-69
2023/04/30 08:04:46;;;;;;;4.90;4.50;;;42.80;26.10;;;;;;4992220;28;20791;-70
2023/04/30 08:07:12;;;;;;;5.20;4.70;;;43.00;25.70;;;;;;4991817;28;20224;-69
2023/04/30 08:09:37;;;;;;;4.90;4.50;;;43.00;25.40;;;;;;4992770;28;20200;-70
2023/04/30 08:12:03;;;;;;;6.07;5.57;;;43.00;25.00;;;;;;4995811;28;20196;-69
2023/04/30 08:14:30;;;;;;;5.90;5.40;;;42.90;24.80;;;;;;4995808;28;20165;-69
2023/04/30 08:16:57;;;;;;;4.40;4.00;;;42.90;24.60;;;;;;4994858;28;20406;-70
2023/04/30 08:19:22;;;;;;;5.07;4.60;;;43.10;25.20;;;;;;4995403;28;20386;-70
2023/04/30 08:21:48;;;;;;;5.13;4.73;;;43.50;25.30;;;;;;4995586;28;20393;-70
2023/04/30 08:24:13;;;;;;;4.27;3.97;;;43.80;25.00;;;;;;4994965;28;20178;-70
2023/04/30 08:26:39;;;;;;;4.70;3.47;;;44.40;25.10;;;;;;4995240;28;20680;-71
2023/04/30 08:29:07;;;;;;;4.37;4.07;;;45.00;24.90;;;;;;4995292;28;20211;-71
2023/04/30 08:31:33;;;;;;;4.30;3.90;;;45.20;23.70;;;;;;4995250;28;20169;-71
2023/04/30 08:33:58;;;;;;;3.53;3.33;;;45.70;24.10;;;;;;4995524;28;20462;-71
2023/04/30 08:36:24;;;;;;;7.80;4.10;;;46.10;23.90;;;;;;4995488;28;20184;-71
2023/04/30 08:38:49;;;;;;;4.83;4.43;;;46.60;23.80;;;;;;4995286;28;20244;-71
2023/04/30 08:41:15;;;;;;;4.07;3.77;;;47.00;23.40;;;;;;4995449;28;20169;-71
2023/04/30 08:43:43;;;;;;;4.10;3.80;;;47.40;23.10;;;;;;4995391;28;20168;-71
2023/04/30 08:46:11;;;;;;;7.10;4.63;;;47.70;22.60;;;;;;4995278;28;20204;-71
2023/04/30 08:48:38;;;;;;;4.77;4.37;;;47.90;22.70;;;;;;4995010;28;20378;-71
2023/04/30 08:51:03;;;;;;;5.03;3.40;;;48.10;22.40;;;;;;4994959;28;20375;-70
2023/04/30 08:53:37;;;;;;;4.10;3.80;;;48.40;22.60;;;;;;4995048;28;20400;-70
2023/04/30 08:56:03;;;;;;;3.50;3.30;;;48.70;22.50;;;;;;4994967;28;20188;-70
2023/04/30 08:58:29;;;;;;;4.37;3.97;;;48.90;22.20;;;;;;4994658;28;20927;-70
2023/04/30 09:00:58;;;;;;;4.40;4.10;;;49.20;22.10;;;;;;4994979;28;20431;-70
2023/04/30 09:03:24;;;;;;;4.73;4.33;;;49.40;21.90;;;;;;4994881;28;20165;-71
2023/04/30 09:05:49;;;;;;;6.00;4.20;;;49.80;21.80;;;;;;4994753;28;20777;-71
2023/04/30 09:08:38;;;;;;;4.20;3.90;;;50.00;21.50;;;;;;4994538;28;20311;-70
2023/04/30 09:11:39;;;;;;;3.80;3.60;;;50.10;21.50;;;;;;4994650;28;20173;-71
2023/04/30 09:14:05;;;;;;;3.40;3.10;;;50.40;21.20;;;;;;4994506;28;20436;-71
2023/04/30 09:16:48;;;;;;;3.80;3.53;;;51.00;21.20;;;;;;4994520;28;20432;-71
2023/04/30 09:19:40;;;;;;;4.10;3.80;;;51.40;20.60;;;;;;4994075;28;20201;-71
2023/04/30 09:22:19;;;;;;;3.80;3.60;;;51.60;20.10;;;;;;4993387;28;20923;-71
2023/04/30 09:24:48;;;;;;;3.70;3.50;;;51.40;20.20;;;;;;5020874;28;20385;-70
2023/04/30 09:27:21;;;;;;;3.90;3.60;;;51.30;20.30;;;;;;5013708;28;20379;-70
2023/04/30 09:29:47;;;;;;;3.23;3.03;;;51.10;20.00;;;;;;5011690;28;20441;-71
2023/04/30 09:32:13;;;;;;;3.40;3.10;;;50.90;19.90;;;;;;5019889;28;20412;-71
2023/04/30 09:34:39;;;;;;;2.93;2.73;;;50.90;19.90;;;;;;5025403;28;20758;-70
2023/04/30 09:37:05;;;;;;;2.67;2.57;;;50.80;19.60;;;;;;5033404;28;20235;-71
2023/04/30 09:39:30;;;;;;;2.60;2.40;;;50.50;19.40;;;;;;5030691;28;20998;-70
2023/04/30 09:42:09;;;;;;;2.80;2.60;;;50.50;19.40;;;;;;5016118;28;20646;-71
2023/04/30 09:44:37;;;;;;;3.40;3.10;;;50.30;19.00;;;;;;5010053;28;20172;-70
2023/04/30 09:47:03;;;;;;;2.97;2.77;;;50.70;19.50;;;;;;5020438;28;20409;-70
2023/04/30 09:49:29;;;;;;;3.50;3.30;;;50.70;19.40;;;;;;5013648;28;20393;-70
2023/04/30 09:51:59;;;;;;;3.23;3.03;;;50.80;19.70;;;;;;5013864;28;20836;-70
2023/04/30 09:54:30;;;;;;;3.03;2.90;;;51.20;19.30;;;;;;5017981;28;20400;-70
2023/04/30 09:56:58;;;;;;;3.33;3.13;;;51.20;19.20;;;;;;5016938;28;20412;-70
2023/04/30 09:59:35;;;;;;;2.50;2.30;;;50.70;19.10;;;;;;5033100;28;20432;-70
2023/04/30 10:02:03;;;;;;;2.77;2.57;;;50.70;19.20;;;;;;5033124;28;20408;-70
2023/04/30 10:04:39;;;;;;;3.00;2.80;;;51.10;19.10;;;;;;5014850;28;20406;-70
2023/04/30 10:07:09;;;;;;;2.30;2.13;;;50.70;17.90;;;;;;4993679;28;20436;-70
2023/04/30 10:09:41;;;;;;;2.80;2.60;;;51.10;18.90;;;;;;5006759;28;20508;-71
2023/04/30 10:12:14;;;;;;;2.40;2.20;;;51.40;18.40;;;;;;5022147;28;20492;-71
2023/04/30 10:14:50;;;;;;;2.70;2.50;;;51.60;18.90;;;;;;5012747;28;20551;-70
2023/04/30 10:17:17;;;;;;;2.40;2.30;;;51.90;18.90;;;;;;5027281;28;20463;-71
2023/04/30 10:19:47;;;;;;;2.97;2.83;;;52.20;18.60;;;;;;5021187;28;20458;-71
2023/04/30 10:22:13;;;;;;;3.10;2.87;;;52.60;18.50;;;;;;5021084;28;20409;-70
2023/04/30 10:24:40;;;;;;;2.80;2.60;;;52.60;18.40;;;;;;5013081;28;20474;-70
2023/04/30 10:27:06;;;;;;;2.73;2.53;;;52.50;18.40;;;;;;5012089;28;20514;-71
2023/04/30 10:29:32;;;;;;;3.20;3.00;;;52.40;18.50;;;;;;5009224;28;20524;-70
2023/04/30 10:31:58;;;;;;;4.20;2.90;;;52.70;18.60;;;;;;5023812;28;20164;-70
2023/04/30 10:34:34;;;;;;;3.07;2.70;;;52.50;17.60;;;;;;5032496;28;20416;-70
2023/04/30 10:37:09;;;;;;;2.50;2.23;;;52.40;18.30;;;;;;5017137;28;20863;-70
2023/04/30 10:39:37;;;;;;;2.33;2.13;;;52.60;18.50;;;;;;5028512;28;20463;-71
2023/04/30 10:42:05;;;;;;;2.93;2.73;;;52.80;17.60;;;;;;5009129;28;20422;-70
2023/04/30 10:44:35;;;;;;;2.50;2.30;;;52.90;18.10;;;;;;5011368;28;20944;-70
2023/04/30 10:47:02;;;;;;;3.93;3.20;;;53.50;18.40;;;;;;5019990;28;20461;-70
2023/04/30 10:49:28;;;;;;;2.50;2.40;;;54.00;18.10;;;;;;5028719;28;20788;-70
2023/04/30 10:51:57;;;;;;;2.80;2.60;;;54.30;17.90;;;;;;5011280;28;20472;-70
2023/04/30 10:54:28;;;;;;;2.90;2.37;;;54.20;17.90;;;;;;5012767;28;20409;-70
2023/04/30 10:57:11;;;;;;;2.43;2.23;;;53.40;17.40;;;;;;5020352;28;20481;-70
2023/04/30 10:59:37;;;;;;;2.47;2.27;;;50.90;17.30;;;;;;5012373;28;20435;-70
2023/04/30 11:02:02;;;;;;;2.80;2.60;;;49.60;18.30;;;;;;5011625;28;20410;-70
2023/04/30 11:04:28;;;;;;;2.63;2.10;;;49.30;18.70;;;;;;5018707;28;20204;-70
2023/04/30 11:07:06;;;;;;;2.13;2.03;;;50.00;19.10;;;;;;5031511;28;20198;-70
2023/04/30 11:09:37;;;;;;;2.03;1.93;;;51.30;18.90;;;;;;5023351;28;20251;-70
2023/04/30 11:12:09;;;;;;;2.30;2.20;;;52.60;18.20;;;;;;5012112;28;20423;-70
2023/04/30 11:14:40;;;;;;;2.30;2.20;;;53.40;17.90;;;;;;5012272;28;20395;-70
2023/04/30 11:17:05;;;;;;;2.50;2.40;;;54.10;17.90;;;;;;5011949;28;21143;-71
2023/04/30 11:19:33;;;;;;;2.93;2.83;;;54.60;18.00;;;;;;5005863;28;20461;-70
2023/04/30 11:22:04;;;;;;;2.50;2.40;;;54.90;17.60;;;;;;5022677;28;20175;-70
2023/04/30 11:24:58;;;;;;;2.50;2.40;;;54.90;18.00;;;;;;5028631;28;20402;-70
2023/04/30 11:27:27;;;;;;;2.57;2.37;;;55.60;17.40;;;;;;5031569;28;20397;-70
2023/04/30 11:29:54;;;;;;;2.30;2.10;;;54.60;17.30;;;;;;5031751;28;20724;-70
2023/04/30 11:32:22;;;;;;;2.20;2.00;;;52.40;16.80;;;;;;5030755;28;20966;-70
2023/04/30 11:34:48;;;;;;;2.00;1.80;;;49.70;16.50;;;;;;5016411;28;20418;-69
2023/04/30 11:37:29;;;;;;;1.93;1.50;;;48.60;18.00;;;;;;5023237;28;20845;-69
2023/04/30 11:39:58;;;;;;;1.83;1.73;;;49.70;18.90;;;;;;5007027;28;20455;-70
2023/04/30 11:42:24;;;;;;;1.90;1.80;;;51.00;18.00;;;;;;5016145;28;20381;-70
2023/04/30 11:44:49;;;;;;;1.70;1.60;;;52.30;18.10;;;;;;5033673;28;20782;-70
2023/04/30 11:47:15;;;;;;;1.83;1.70;;;52.90;17.30;;;;;;5024860;28;20176;-69
2023/04/30 11:49:42;;;;;;;1.73;1.63;;;51.60;17.20;;;;;;5027406;28;20269;-70
2023/04/30 11:52:08;;;;;;;1.67;1.57;;;50.40;17.70;;;;;;5035663;28;20171;-70
2023/04/30 11:54:37;;;;;;;1.90;1.80;;;49.50;17.50;;;;;;5022508;28;20444;-69
2023/04/30 11:57:03;;;;;;;2.00;1.90;;;48.90;17.60;;;;;;5026826;28;20913;-70
2023/04/30 11:59:30;;;;;;;1.77;1.67;;;49.20;18.30;;;;;;5035488;28;20761;-70
2023/04/30 12:01:56;;;;;;;2.20;2.10;;;49.80;18.30;;;;;;5035388;28;20882;-70
2023/04/30 12:04:21;;;;;;;2.40;1.80;;;49.20;17.90;;;;;;5019838;28;20434;-69
2023/04/30 12:06:47;;;;;;;1.80;1.70;;;48.60;17.70;;;;;;5026856;28;20246;-69
2023/04/30 12:09:12;;;;;;;2.07;1.93;;;47.50;18.40;;;;;;5021260;28;20181;-69
2023/04/30 12:11:38;;;;;;;1.50;1.40;;;45.90;18.30;;;;;;5021205;28;20172;-69
2023/04/30 12:14:06;;;;;;;1.57;1.47;;;44.40;19.10;;;;;;5013145;28;20199;-69
2023/04/30 12:16:49;;;;;;;1.53;1.43;;;45.50;20.20;;;;;;5026786;28;20195;-70
2023/04/30 12:19:20;;;;;;;2.00;1.43;;;48.00;20.00;;;;;;5035021;28;20785;-70
2023/04/30 12:21:48;;;;;;;1.53;1.43;;;49.80;19.00;;;;;;5026837;28;20425;-70
2023/04/30 12:24:15;;;;;;;1.57;1.37;;;49.70;18.10;;;;;;5023592;28;20450;-70
2023/04/30 12:26:41;;;;;;;1.70;1.60;;;48.40;18.30;;;;;;5013442;28;20456;-70
2023/04/30 12:29:14;;;;;;;4.10;3.80;;;48.50;18.80;;;;;;5024330;28;20418;-70
2023/04/30 12:31:40;;;;;;;1.77;1.67;;;48.70;19.10;;;;;;5029300;28;20478;-70
2023/04/30 12:34:07;;;;;;;1.97;1.87;;;49.40;18.80;;;;;;5024223;28;20413;-70
2023/04/30 12:36:35;;;;;;;2.50;1.70;;;50.50;18.80;;;;;;5031987;28;20203;-70
2023/04/30 12:39:12;;;;;;;1.50;1.40;;;51.70;18.20;;;;;;5014434;28;20960;-70
2023/04/30 12:41:46;;;;;;;1.70;1.60;;;51.50;17.40;;;;;;5014956;28;20430;-70
2023/04/30 12:44:26;;;;;;;1.50;1.40;;;49.30;17.00;;;;;;5001009;28;20427;-70
2023/04/30 12:46:59;;;;;;;1.27;1.17;;;46.50;17.70;;;;;;5025835;28;20463;-70
2023/04/30 12:49:34;;;;;;;1.50;1.20;;;44.30;18.20;;;;;;5017890;28;20943;-69